Terminal Aerodrome Forecast
Issued by NWS

Home | Current Version | Previous Version | Text Only | Print | Product List | Glossary On
Versions: 1 2 3 4 5 6 7 8 9 10 11 12
000
FTUS45 KRIW 210500
TAFBPI
TAF
KBPI 210538Z 2106/2206 VRB05KT P6SM VCSH SCT020 OVC035
     FM210700 VRB06KT 3SM -SN SCT015 OVC025
     FM211700 27010KT 5SM -SN SCT020 OVC035
     FM220100 32014G22KT 2SM -SHSN OVC015=

USA.gov is the U.S. government's official web portal to all federal, state and local government web resources and services.